Timeline UpdatesTrip UpdatesNews PostsPvt PostsTravel TipsAdmin PostsConv PostsFollowed PostsChat RequestsBlog PostsPNR Posts

Disclaimer
Search
 
 
Tue Sep 2, 2014 14:46:28 ISTHomeTrainsΣChainsAtlasPNRForumGalleryNewsFAQTripsMembersLoginFeedback
No Recent News for this Train
Other Trains in the News **new
Latest...
Will be rescheduled conveniently on 03.02.2013 (Sunday)
Sat Feb 02, 2013 (03:29PM)
⇐ Return Journey: Train# 13414

13413/Farakka Express (via Sultanpur)

Time-Table HAS CHANGED.
Yesterday (11:49PM)
Change Departure Station:
Change Arrival Station:
Post a Train Travel TipPost a Train Travel Tip **new
Post a Comment/Question/Picture/VideoPost a Comment/Question/Picture/Video
Pantry/Catering
✓ Pantry Car Avbl
✓ Catering Avbl
RSA - Rake Sharing
13483/13484/04031/04032
Rake/Coach Composition
Entry# 1182283 Author:Manu ; LOCO-HPCV-SLR-UR-UR-UR-UR-UR-UR-B1-A1-PC-S9-S8-S7-S6-S5-S4-S3-S2-S1-UR-UR-SLR
Loco
LKO WDM 3A/3D [MLDT to LKO] GZB WAP 5/7...
Read more...
[LKO to DLI] Offlink:-WAP 1 GZB/WAP 4 GZB
News    PNR    Forum    Time-Table    Availability    Fare Chart    Map    Arr/Dep History    Trips    Gallery    ΣChains    X/O    Timeline    
Travel Time: 17h 11m    37 halts    Distance: 689 km    Avg Speed: 40 km/hr
Type: Mail/Express
Zone: ER/Eastern
Departs @ 19:10
Platform# ???
 M  T S
Malda Town/MLDT 
Arrives @ 12:21 +1 night
Platform# 2
S T  F 
Jaunpur City/JOP 

37 halts. 156 intermediate Stations between Malda Town and Jaunpur City

Show ALL intermediate Stations  Show Old Time-Table

#CodeStation NameX/OArrivesAvgDepartsAvgHaltPFDay#KmSpeedElevZoneAddress
1MLDT»Malda Town (5)»  -19:10---10.06430mERDist - Malda, West Bengal
2NFKNew Farakka Junction (3)  19:43-19:53-10m1135.13432mERDist - Murshidabad, West Bengal
3BHWBarharwa Junction (3)X  20:25-20:29-4m1153.16336mERBarharwa, Jharkhand
4TPHTinpahar Junction (3)X  20:47 20:45-20:48 20:46-1m1169.84245mERBamangawan, Jharkhand
5SBGSahibganj Junction (3)X  21:40-21:50-10m21107.54338mERSahibganj, Jharkhand
6PPTPirpainti (2)  22:23-22:24-1m--1131.15653mERBhagalpur, Bihar
7CLGKahalgaon (2)O  22:46-22:47-1m21151.45944mERBhagalpur, Bihar
8SBOSabaur (3)  23:10-23:11-1m--1173.92442mERSabour, Bihar
9BGPBhagalpur Junction (6)X  23:30-23:40-10m--1181.5149mERBhagalpur, Bihar
10SGGSultanGanj (3)  23:59 23:59-00:01 00:01-2m--2206.4-142mERSultanganj, Bihar
11BUPBariarpur (3)  00:25-00:26-1m--2224.44542mERMunger, Bihar
12JMPJamalpur Junction (4)X  00:41-00:51-10m--2235.56959mERJamalpur 06344-243101, Bihar
13AHAAbhaipur (2)  01:10-01:11-1m--2257.32252mERAbhaipur, Bihar
14KIULKiul Junction (5)  02:15-02:25-10m--2280.35853mECRDist. Lakhisarai, Bihar
15BRYABarhiya (3)O  02:42-02:43-1m--2296.85647mECRBarahiya, Bihar
16MKAMokama Junction (4)  03:02-03:04-2m--2314.55048mECRPatna, Bihar
17BARHBarh (3)X  03:34 03:35-03:36-2 1m--2340.45849mECRBarh, Bihar
18BKPBakhtiyarpur Junction (5)  03:55-03:59-4m--2358.78651mECRPatna, Bihar
19FUTFatwa (6)  04:14 04:15-04:16-2 1m--2381.71753mECRPatna, Bihar
20PNCPatna Saheb (3)  04:54 05:00-04:56 05:01-2 1m--2393.94459mECRPatna, Bihar
21RJPBRajendra Nagar Bihar (4)  05:11-05:13-2m--2401.22255mECRPatna 800001, Bihar
22PNBEPatna Junction (10)X  05:20-05:30-10m52403.83857mECRPatna 800001, Bihar
23DNRDanapur (5)X  05:45-05:55-10m--2413.28758mECRKhagaul, Bihar
24BTABihta (2)X  06:07-06:08-1m--2430.55862mECRDistt: Patna, Bihar
25ARAAra Junction (3)  06:31-06:33-2m--2452.79263mECRarrah( 06182-233411), Bihar
26BEABihiya (3)  06:46 06:47-06:48-2 1m--2474.17467mECRBehea, Bihar
27RPRRaghunathpur (4)  06:59 07:00-07:01-2 1m--2488.97469mECRRaghunathpur, Bihar
28DUREDumraon (3)X  07:13 07:14-07:15-2 1m--2504.94970mECRDumraon, Bihar
29BXRBuxar (3)  07:35-07:40-5m--2521.27367mECRBuxar, Bihar
30CSAChausa (2)X  07:48 07:49-07:50-2 1m--2532.24368mECRState Highway 14, Bihar
31GMRGahmar (2)  08:03-08:04-1m--2541.47068mECRDistt: Ghazipur, Uttar Pradesh
32BWHBhadaura (2)X08:10 08:11-08:12-2 1m--2549.64769mECRGhazipur, Uttar Pradesh
33DLNDildarnagar Junction (2)  08:22-08:24-2m--2557.48172mECRDildarnagar, Uttar Pradesh
34ZNAZamania (2)  08:33 08:34-08:35-2 1m--2570.92977mECRGhazipur, Uttar Pradesh
35MGSMughal Sarai Junction (8)  10:05-10:20-15m32615.12583mECRMughalsarai 232101, Uttar Pradesh
36BSBVaranasi Junction (9)  11:00-11:20-20m82631.67382mNRVaranasi 221002, Uttar Pradesh
37JLLJalalGanj (2)X  11:52-11:53-1m--2670.84587mNRJalalganj Railway Station, Uttar Pradesh
38ZBDZafarabad Junction (4)X  12:09-12:10-1m--2682.83483mNRNational Highway 56, Uttar Pradesh
39JOP•Jaunpur City (3)•X  12:20 12:21-12:22-2 1m22689.17087mNRJaunpur, Uttar Pradesh
40SKNSri Krishna Nagar (2)  12:46-12:47-1m12717.04492mNRBadlapur, Uttar Pradesh
41HRPGHarpalGanj (1)X  12:59 12:58-13:00 12:59-1m12725.04090mNRNational Highway 56, Uttar Pradesh
42KEPRKoiripur (1)X  13:16 13:15-13:17 13:16-1m12735.76196mNRNational Highway 56, Uttar Pradesh
43LBALambhua (1)  13:34 13:33-13:35 13:34-1m12752.93797mNRLambhua, Uttar Pradesh
44SLNSultanpur Junction (3)  14:10-14:20-10m12774.87099mNRSultanpur., Uttar Pradesh
45MFKAMusafir Khana (3)  14:47-14:48-1m--2806.467105mNRMusfirKhana, Uttar Pradesh
46NHHNihalgarh (3)  15:05-15:06-1m12825.361108mNRJagdishpur, Uttar Pradesh
47AKJAkbarGanj (1)  15:21-15:22-1m12840.560112mNRSH 31, Uttar Pradesh
48HGHHaidergarh (2)  15:39-15:40-1m--2857.516116mNRState Highway 13, Uttar Pradesh
49LKOLucknow Charbagh (9)X19:10-19:35-25m62914.267123mNR226004, Uttar Pradesh
50ONUnnao Junction (5)X  20:23 20:24-20:25-2 1m--2968.826129mNRUnnao, Uttar Pradesh
51CNBKanpur Central (10)X  21:05-21:15-10m62986.286128mNCRKANPUR-208 001, Uttar Pradesh
52ETWEtawah (5)X  22:51 22:52-22:53-2 1m221125.681154mNCRDistt. Etawah, Uttar Pradesh
53SKBShikohabad Junction (4)X  23:33 23:34-23:35-2 1m321181.054166mNCRDistrict Firozabad, Uttar Pradesh
54FZDFirozabad (4)  23:56 23:57-23:58-2 1m321200.931164mNCRFirozabad, Uttar Pradesh
55TDLTundla Junction (5)X  00:30-00:38-8m231217.454167mNCRDistt.Firozabad, Uttar Pradesh
56HRSHathras Junction (3)  01:17 01:31-01:19 01:32-2 1m--31265.482183mNCRMahamaya Nagar(05722-242803), Uttar Pradesh
57ALJNAligarh Junction (4)  01:41 01:54-01:46 01:59-5m331295.6119192mNCRAligarh, Uttar Pradesh
58KRJKhurja Junction (4)O  02:16 02:21-02:21 02:26-5m--31339.045199mNCRBulandshahr, Uttar Pradesh
59GZBGhaziabad Junction (6)  03:40 03:50-03:42 03:52-2m331401.737217mNRGhaziabad, Uttar Pradesh
60SBBSahibabad Junction (5)  03:51 04:03-03:53 04:04-2 1m--31408.438209mNRGhaziabad, Uttar Pradesh
61DSAShahdara Junction (4)  04:04 04:15-04:06 04:16-2 1m--31415.316212mNRCircular Rd, Delhi NCT
62DLIOld Delhi Junction (16)  04:30 04:40--1031421.6-219mNRNear Chandni Chowk Metro Station, Delhi NCT
Scroll to Top
Scroll to Bottom